sensor_id;sensor_type;location;lat;lon;timestamp;temperature;humidity
49184;DHT22;35021;49.214;12.270;2023-12-20T00:02:03;20.50;31.80
49184;DHT22;35021;49.214;12.270;2023-12-20T00:04:30;20.50;31.90
49184;DHT22;35021;49.214;12.270;2023-12-20T00:06:57;20.50;31.90
49184;DHT22;35021;49.214;12.270;2023-12-20T00:09:25;20.50;31.90
49184;DHT22;35021;49.214;12.270;2023-12-20T00:11:51;20.40;31.90
49184;DHT22;35021;49.214;12.270;2023-12-20T00:14:18;20.50;32.00
49184;DHT22;35021;49.214;12.270;2023-12-20T00:16:45;20.50;32.00
49184;DHT22;35021;49.214;12.270;2023-12-20T00:19:12;20.50;32.10
49184;DHT22;35021;49.214;12.270;2023-12-20T00:21:40;20.40;32.00
49184;DHT22;35021;49.214;12.270;2023-12-20T00:24:07;20.40;32.10
49184;DHT22;35021;49.214;12.270;2023-12-20T00:26:34;20.40;32.10
49184;DHT22;35021;49.214;12.270;2023-12-20T00:29:01;20.40;32.10
49184;DHT22;35021;49.214;12.270;2023-12-20T00:31:28;20.40;32.10
49184;DHT22;35021;49.214;12.270;2023-12-20T00:33:55;20.40;32.10
49184;DHT22;35021;49.214;12.270;2023-12-20T00:36:23;20.50;32.30
49184;DHT22;35021;49.214;12.270;2023-12-20T00:38:50;20.50;32.30
49184;DHT22;35021;49.214;12.270;2023-12-20T00:41:18;20.40;32.20
49184;DHT22;35021;49.214;12.270;2023-12-20T00:43:45;20.40;32.30
49184;DHT22;35021;49.214;12.270;2023-12-20T00:46:12;20.40;32.30
49184;DHT22;35021;49.214;12.270;2023-12-20T00:48:39;20.40;32.40
49184;DHT22;35021;49.214;12.270;2023-12-20T00:51:08;20.30;32.40
49184;DHT22;35021;49.214;12.270;2023-12-20T00:53:36;20.30;32.40
49184;DHT22;35021;49.214;12.270;2023-12-20T00:56:03;20.30;32.50
49184;DHT22;35021;49.214;12.270;2023-12-20T00:58:30;20.30;32.50
49184;DHT22;35021;49.214;12.270;2023-12-20T01:00:57;20.20;32.50
49184;DHT22;35021;49.214;12.270;2023-12-20T01:03:25;20.20;32.60
49184;DHT22;35021;49.214;12.270;2023-12-20T01:05:52;20.20;32.60
49184;DHT22;35021;49.214;12.270;2023-12-20T01:08:19;20.20;32.60
49184;DHT22;35021;49.214;12.270;2023-12-20T01:10:46;20.20;32.60
49184;DHT22;35021;49.214;12.270;2023-12-20T01:13:14;20.20;32.60
49184;DHT22;35021;49.214;12.270;2023-12-20T01:15:41;20.20;32.60
49184;DHT22;35021;49.214;12.270;2023-12-20T01:18:08;20.20;32.70
49184;DHT22;35021;49.214;12.270;2023-12-20T01:20:35;20.20;32.70
49184;DHT22;35021;49.214;12.270;2023-12-20T01:23:03;20.20;32.70
49184;DHT22;35021;49.214;12.270;2023-12-20T01:25:30;20.20;32.80
49184;DHT22;35021;49.214;12.270;2023-12-20T01:27:57;20.10;32.80
49184;DHT22;35021;49.214;12.270;2023-12-20T01:30:24;20.10;32.80
49184;DHT22;35021;49.214;12.270;2023-12-20T01:32:51;20.10;32.90
49184;DHT22;35021;49.214;12.270;2023-12-20T01:35:18;20.10;33.00
49184;DHT22;35021;49.214;12.270;2023-12-20T01:37:45;20.10;33.00
49184;DHT22;35021;49.214;12.270;2023-12-20T01:40:13;20.10;33.10
49184;DHT22;35021;49.214;12.270;2023-12-20T01:42:40;20.00;33.20
49184;DHT22;35021;49.214;12.270;2023-12-20T01:45:07;20.00;33.20
49184;DHT22;35021;49.214;12.270;2023-12-20T01:47:35;20.00;33.30
49184;DHT22;35021;49.214;12.270;2023-12-20T01:50:03;20.00;33.40
49184;DHT22;35021;49.214;12.270;2023-12-20T01:52:31;20.00;33.40
49184;DHT22;35021;49.214;12.270;2023-12-20T01:55:00;20.00;33.50
49184;DHT22;35021;49.214;12.270;2023-12-20T01:57:30;20.00;33.60
49184;DHT22;35021;49.214;12.270;2023-12-20T01:59:58;20.00;33.60
49184;DHT22;35021;49.214;12.270;2023-12-20T02:02:25;20.00;33.60
49184;DHT22;35021;49.214;12.270;2023-12-20T02:04:54;20.00;33.60
49184;DHT22;35021;49.214;12.270;2023-12-20T02:07:22;20.00;33.60
49184;DHT22;35021;49.214;12.270;2023-12-20T02:09:49;20.00;33.70
49184;DHT22;35021;49.214;12.270;2023-12-20T02:12:17;20.00;33.70
49184;DHT22;35021;49.214;12.270;2023-12-20T02:14:44;20.00;33.70
49184;DHT22;35021;49.214;12.270;2023-12-20T02:17:11;20.00;33.70
49184;DHT22;35021;49.214;12.270;2023-12-20T02:19:38;20.10;33.90
49184;DHT22;35021;49.214;12.270;2023-12-20T02:22:09;20.00;33.80
49184;DHT22;35021;49.214;12.270;2023-12-20T02:24:36;20.10;33.90
49184;DHT22;35021;49.214;12.270;2023-12-20T02:27:03;20.10;33.90
49184;DHT22;35021;49.214;12.270;2023-12-20T02:29:35;20.10;34.00
49184;DHT22;35021;49.214;12.270;2023-12-20T02:32:02;20.10;34.00
49184;DHT22;35021;49.214;12.270;2023-12-20T02:34:29;20.10;34.00
49184;DHT22;35021;49.214;12.270;2023-12-20T02:36:57;20.10;34.10
49184;DHT22;35021;49.214;12.270;2023-12-20T02:39:24;20.10;34.10
49184;DHT22;35021;49.214;12.270;2023-12-20T02:41:51;20.10;34.10
49184;DHT22;35021;49.214;12.270;2023-12-20T02:44:18;20.10;34.10
49184;DHT22;35021;49.214;12.270;2023-12-20T02:46:45;20.10;34.30
49184;DHT22;35021;49.214;12.270;2023-12-20T02:49:12;20.10;34.30
49184;DHT22;35021;49.214;12.270;2023-12-20T02:51:39;20.10;34.50
49184;DHT22;35021;49.214;12.270;2023-12-20T02:54:06;20.10;34.40
49184;DHT22;35021;49.214;12.270;2023-12-20T02:56:33;20.10;34.50
49184;DHT22;35021;49.214;12.270;2023-12-20T02:59:00;20.10;34.50
49184;DHT22;35021;49.214;12.270;2023-12-20T03:01:28;20.20;34.50
49184;DHT22;35021;49.214;12.270;2023-12-20T03:03:56;20.20;34.50
49184;DHT22;35021;49.214;12.270;2023-12-20T03:06:23;20.30;34.40
49184;DHT22;35021;49.214;12.270;2023-12-20T03:08:50;20.40;34.30
49184;DHT22;35021;49.214;12.270;2023-12-20T03:11:17;20.50;34.30
49184;DHT22;35021;49.214;12.270;2023-12-20T03:13:44;20.60;34.30
49184;DHT22;35021;49.214;12.270;2023-12-20T03:16:11;20.60;34.10
49184;DHT22;35021;49.214;12.270;2023-12-20T03:18:39;20.70;34.10
49184;DHT22;35021;49.214;12.270;2023-12-20T03:21:06;20.80;34.00
49184;DHT22;35021;49.214;12.270;2023-12-20T03:23:33;20.80;33.80
49184;DHT22;35021;49.214;12.270;2023-12-20T03:26:00;20.90;33.90
49184;DHT22;35021;49.214;12.270;2023-12-20T03:28:27;20.90;34.50
49184;DHT22;35021;49.214;12.270;2023-12-20T03:30:54;20.90;33.80
49184;DHT22;35021;49.214;12.270;2023-12-20T03:33:22;20.80;33.80
49184;DHT22;35021;49.214;12.270;2023-12-20T03:35:48;20.80;34.00
49184;DHT22;35021;49.214;12.270;2023-12-20T03:38:15;20.80;34.00
49184;DHT22;35021;49.214;12.270;2023-12-20T03:40:42;20.80;34.10
49184;DHT22;35021;49.214;12.270;2023-12-20T03:43:09;20.80;34.20
49184;DHT22;35021;49.214;12.270;2023-12-20T03:45:36;20.80;34.30
49184;DHT22;35021;49.214;12.270;2023-12-20T03:48:04;20.80;34.90
49184;DHT22;35021;49.214;12.270;2023-12-20T03:50:31;20.80;34.20
49184;DHT22;35021;49.214;12.270;2023-12-20T03:52:58;20.90;34.20
49184;DHT22;35021;49.214;12.270;2023-12-20T03:55:25;20.90;34.10
49184;DHT22;35021;49.214;12.270;2023-12-20T03:57:52;21.00;34.10
49184;DHT22;35021;49.214;12.270;2023-12-20T04:00:19;21.00;34.00
49184;DHT22;35021;49.214;12.270;2023-12-20T04:02:46;21.10;34.00
49184;DHT22;35021;49.214;12.270;2023-12-20T04:05:13;21.20;34.00
49184;DHT22;35021;49.214;12.270;2023-12-20T04:07:40;21.20;33.90
49184;DHT22;35021;49.214;12.270;2023-12-20T04:10:07;21.20;33.90
49184;DHT22;35021;49.214;12.270;2023-12-20T04:12:35;21.20;33.90
49184;DHT22;35021;49.214;12.270;2023-12-20T04:15:02;21.10;33.90
49184;DHT22;35021;49.214;12.270;2023-12-20T04:17:35;21.10;34.00
49184;DHT22;35021;49.214;12.270;2023-12-20T04:20:03;21.00;34.10
49184;DHT22;35021;49.214;12.270;2023-12-20T04:22:30;21.00;34.20
49184;DHT22;35021;49.214;12.270;2023-12-20T04:24:57;20.90;34.30
49184;DHT22;35021;49.214;12.270;2023-12-20T04:27:24;20.90;34.30
49184;DHT22;35021;49.214;12.270;2023-12-20T04:29:51;20.90;34.20
49184;DHT22;35021;49.214;12.270;2023-12-20T04:32:18;20.90;34.30
49184;DHT22;35021;49.214;12.270;2023-12-20T04:34:45;20.90;34.30
49184;DHT22;35021;49.214;12.270;2023-12-20T04:37:12;20.90;34.20
49184;DHT22;35021;49.214;12.270;2023-12-20T04:39:39;21.00;34.30
49184;DHT22;35021;49.214;12.270;2023-12-20T04:42:08;21.00;34.30
49184;DHT22;35021;49.214;12.270;2023-12-20T04:44:35;21.00;35.00
49184;DHT22;35021;49.214;12.270;2023-12-20T04:47:02;21.00;34.20
49184;DHT22;35021;49.214;12.270;2023-12-20T04:49:29;21.00;34.20
49184;DHT22;35021;49.214;12.270;2023-12-20T04:51:57;21.00;34.20
49184;DHT22;35021;49.214;12.270;2023-12-20T04:54:24;21.00;34.30
49184;DHT22;35021;49.214;12.270;2023-12-20T04:56:51;21.00;34.30
49184;DHT22;35021;49.214;12.270;2023-12-20T04:59:18;20.90;34.30
49184;DHT22;35021;49.214;12.270;2023-12-20T05:01:44;20.90;34.40
49184;DHT22;35021;49.214;12.270;2023-12-20T05:04:12;20.80;34.40
49184;DHT22;35021;49.214;12.270;2023-12-20T05:06:39;20.80;34.50
49184;DHT22;35021;49.214;12.270;2023-12-20T05:09:06;20.80;34.60
49184;DHT22;35021;49.214;12.270;2023-12-20T05:11:33;20.70;34.60
49184;DHT22;35021;49.214;12.270;2023-12-20T05:14:00;20.70;34.60
49184;DHT22;35021;49.214;12.270;2023-12-20T05:16:27;20.70;34.60
49184;DHT22;35021;49.214;12.270;2023-12-20T05:18:54;20.80;34.70
49184;DHT22;35021;49.214;12.270;2023-12-20T05:21:21;20.80;34.50
49184;DHT22;35021;49.214;12.270;2023-12-20T05:23:48;20.90;34.60
49184;DHT22;35021;49.214;12.270;2023-12-20T05:26:15;20.90;34.50
49184;DHT22;35021;49.214;12.270;2023-12-20T05:28:42;20.90;34.50
49184;DHT22;35021;49.214;12.270;2023-12-20T05:31:09;21.00;34.40
49184;DHT22;35021;49.214;12.270;2023-12-20T05:33:36;21.00;34.40
49184;DHT22;35021;49.214;12.270;2023-12-20T05:36:04;21.00;34.40
49184;DHT22;35021;49.214;12.270;2023-12-20T05:38:31;21.00;34.40
49184;DHT22;35021;49.214;12.270;2023-12-20T05:40:58;21.00;34.40
49184;DHT22;35021;49.214;12.270;2023-12-20T05:43:24;21.00;34.50
49184;DHT22;35021;49.214;12.270;2023-12-20T05:45:51;20.90;34.50
49184;DHT22;35021;49.214;12.270;2023-12-20T05:48:18;20.90;34.40
49184;DHT22;35021;49.214;12.270;2023-12-20T05:50:45;21.00;34.50
49184;DHT22;35021;49.214;12.270;2023-12-20T05:53:12;21.00;34.40
49184;DHT22;35021;49.214;12.270;2023-12-20T05:55:39;21.00;34.30
49184;DHT22;35021;49.214;12.270;2023-12-20T05:58:06;21.10;34.20
49184;DHT22;35021;49.214;12.270;2023-12-20T06:00:34;21.10;34.10
49184;DHT22;35021;49.214;12.270;2023-12-20T06:03:01;21.20;34.10
49184;DHT22;35021;49.214;12.270;2023-12-20T06:05:28;21.20;33.90
49184;DHT22;35021;49.214;12.270;2023-12-20T06:07:55;21.30;33.90
49184;DHT22;35021;49.214;12.270;2023-12-20T06:10:24;21.30;33.80
49184;DHT22;35021;49.214;12.270;2023-12-20T06:12:51;21.30;33.60
49184;DHT22;35021;49.214;12.270;2023-12-20T06:15:18;21.40;33.70
49184;DHT22;35021;49.214;12.270;2023-12-20T06:17:45;21.40;33.70
49184;DHT22;35021;49.214;12.270;2023-12-20T06:20:15;21.40;33.70
49184;DHT22;35021;49.214;12.270;2023-12-20T06:22:42;21.30;33.70
49184;DHT22;35021;49.214;12.270;2023-12-20T06:25:09;21.30;33.70
49184;DHT22;35021;49.214;12.270;2023-12-20T06:27:36;21.30;33.80
49184;DHT22;35021;49.214;12.270;2023-12-20T06:30:03;21.20;33.80
49184;DHT22;35021;49.214;12.270;2023-12-20T06:32:31;21.30;33.90
49184;DHT22;35021;49.214;12.270;2023-12-20T06:34:58;21.30;33.80
49184;DHT22;35021;49.214;12.270;2023-12-20T06:37:25;21.30;33.80
49184;DHT22;35021;49.214;12.270;2023-12-20T06:39:52;21.30;33.80
49184;DHT22;35021;49.214;12.270;2023-12-20T06:42:19;21.30;33.70
49184;DHT22;35021;49.214;12.270;2023-12-20T06:44:46;21.40;33.70
49184;DHT22;35021;49.214;12.270;2023-12-20T06:47:13;21.40;33.70
49184;DHT22;35021;49.214;12.270;2023-12-20T06:49:40;21.40;33.70
49184;DHT22;35021;49.214;12.270;2023-12-20T06:52:08;21.40;33.60
49184;DHT22;35021;49.214;12.270;2023-12-20T06:54:35;21.40;33.60
49184;DHT22;35021;49.214;12.270;2023-12-20T06:57:02;21.40;33.60
49184;DHT22;35021;49.214;12.270;2023-12-20T06:59:31;21.40;33.70
49184;DHT22;35021;49.214;12.270;2023-12-20T07:01:58;21.30;33.80
49184;DHT22;35021;49.214;12.270;2023-12-20T07:04:25;21.20;33.90
49184;DHT22;35021;49.214;12.270;2023-12-20T07:06:52;21.10;34.10
49184;DHT22;35021;49.214;12.270;2023-12-20T07:09:20;21.10;34.20
49184;DHT22;35021;49.214;12.270;2023-12-20T07:11:47;21.00;34.30
49184;DHT22;35021;49.214;12.270;2023-12-20T07:14:14;20.90;34.40
49184;DHT22;35021;49.214;12.270;2023-12-20T07:16:41;20.90;34.40
49184;DHT22;35021;49.214;12.270;2023-12-20T07:19:08;20.90;34.50
49184;DHT22;35021;49.214;12.270;2023-12-20T07:21:35;20.90;34.50
49184;DHT22;35021;49.214;12.270;2023-12-20T07:24:02;21.00;34.50
49184;DHT22;35021;49.214;12.270;2023-12-20T07:26:29;21.00;34.40
49184;DHT22;35021;49.214;12.270;2023-12-20T07:28:56;21.00;34.30
49184;DHT22;35021;49.214;12.270;2023-12-20T07:31:25;21.10;34.30
49184;DHT22;35021;49.214;12.270;2023-12-20T07:33:52;21.10;34.20
49184;DHT22;35021;49.214;12.270;2023-12-20T07:36:19;21.20;34.10
49184;DHT22;35021;49.214;12.270;2023-12-20T07:38:46;21.20;34.10
49184;DHT22;35021;49.214;12.270;2023-12-20T07:41:13;21.20;34.10
49184;DHT22;35021;49.214;12.270;2023-12-20T07:43:42;21.20;34.10
49184;DHT22;35021;49.214;12.270;2023-12-20T07:46:09;21.20;34.10
49184;DHT22;35021;49.214;12.270;2023-12-20T07:48:36;21.20;34.10
49184;DHT22;35021;49.214;12.270;2023-12-20T07:51:04;21.20;34.20
49184;DHT22;35021;49.214;12.270;2023-12-20T07:53:31;21.10;34.20
49184;DHT22;35021;49.214;12.270;2023-12-20T07:55:58;21.10;34.20
49184;DHT22;35021;49.214;12.270;2023-12-20T07:58:25;21.10;34.20
49184;DHT22;35021;49.214;12.270;2023-12-20T08:01:10;21.00;34.20
49184;DHT22;35021;49.214;12.270;2023-12-20T08:03:38;21.00;34.30
49184;DHT22;35021;49.214;12.270;2023-12-20T08:06:05;21.00;34.40
49184;DHT22;35021;49.214;12.270;2023-12-20T08:08:32;21.00;34.40
49184;DHT22;35021;49.214;12.270;2023-12-20T08:10:59;21.00;34.40
49184;DHT22;35021;49.214;12.270;2023-12-20T08:13:27;21.00;34.40
49184;DHT22;35021;49.214;12.270;2023-12-20T08:15:54;21.00;34.30
49184;DHT22;35021;49.214;12.270;2023-12-20T08:18:22;21.00;34.40
49184;DHT22;35021;49.214;12.270;2023-12-20T08:20:50;21.10;34.40
49184;DHT22;35021;49.214;12.270;2023-12-20T08:23:19;21.10;34.40
49184;DHT22;35021;49.214;12.270;2023-12-20T08:25:50;21.10;34.40
49184;DHT22;35021;49.214;12.270;2023-12-20T08:28:17;21.10;34.40
49184;DHT22;35021;49.214;12.270;2023-12-20T08:30:45;21.10;34.50
49184;DHT22;35021;49.214;12.270;2023-12-20T08:33:12;21.00;34.50
49184;DHT22;35021;49.214;12.270;2023-12-20T08:35:40;21.00;34.60
49184;DHT22;35021;49.214;12.270;2023-12-20T08:38:07;21.00;34.60
49184;DHT22;35021;49.214;12.270;2023-12-20T08:40:34;20.90;34.70
49184;DHT22;35021;49.214;12.270;2023-12-20T08:43:01;20.90;34.90
49184;DHT22;35021;49.214;12.270;2023-12-20T08:45:28;20.80;34.90
49184;DHT22;35021;49.214;12.270;2023-12-20T08:47:55;20.70;35.00
49184;DHT22;35021;49.214;12.270;2023-12-20T08:50:28;20.70;35.10
49184;DHT22;35021;49.214;12.270;2023-12-20T08:52:55;20.70;35.10
49184;DHT22;35021;49.214;12.270;2023-12-20T08:55:22;20.70;35.10
49184;DHT22;35021;49.214;12.270;2023-12-20T08:57:50;20.70;35.10
49184;DHT22;35021;49.214;12.270;2023-12-20T09:00:17;20.80;35.10
49184;DHT22;35021;49.214;12.270;2023-12-20T09:02:47;20.80;35.10
49184;DHT22;35021;49.214;12.270;2023-12-20T09:05:14;20.80;35.10
49184;DHT22;35021;49.214;12.270;2023-12-20T09:07:41;20.90;35.10
49184;DHT22;35021;49.214;12.270;2023-12-20T09:10:08;20.90;35.10
49184;DHT22;35021;49.214;12.270;2023-12-20T09:12:35;20.90;35.00
49184;DHT22;35021;49.214;12.270;2023-12-20T09:15:06;21.00;35.00
49184;DHT22;35021;49.214;12.270;2023-12-20T09:17:35;21.00;35.00
49184;DHT22;35021;49.214;12.270;2023-12-20T09:20:02;21.00;35.00
49184;DHT22;35021;49.214;12.270;2023-12-20T09:22:30;21.00;35.00
49184;DHT22;35021;49.214;12.270;2023-12-20T09:24:57;21.00;35.00
49184;DHT22;35021;49.214;12.270;2023-12-20T09:27:25;21.00;35.10
49184;DHT22;35021;49.214;12.270;2023-12-20T09:29:52;20.90;35.20
49184;DHT22;35021;49.214;12.270;2023-12-20T09:32:20;20.90;35.30
49184;DHT22;35021;49.214;12.270;2023-12-20T09:34:47;20.80;35.40
49184;DHT22;35021;49.214;12.270;2023-12-20T09:37:15;20.80;35.60
49184;DHT22;35021;49.214;12.270;2023-12-20T09:39:42;20.70;35.60
49184;DHT22;35021;49.214;12.270;2023-12-20T09:42:09;20.70;35.80
49184;DHT22;35021;49.214;12.270;2023-12-20T09:44:38;20.70;35.90
49184;DHT22;35021;49.214;12.270;2023-12-20T09:47:09;20.80;36.60
49184;DHT22;35021;49.214;12.270;2023-12-20T09:49:36;20.80;35.80
49184;DHT22;35021;49.214;12.270;2023-12-20T09:52:04;20.80;35.80
49184;DHT22;35021;49.214;12.270;2023-12-20T09:54:32;20.90;35.80
49184;DHT22;35021;49.214;12.270;2023-12-20T09:56:59;20.90;35.70
49184;DHT22;35021;49.214;12.270;2023-12-20T09:59:26;21.00;35.70
49184;DHT22;35021;49.214;12.270;2023-12-20T10:01:53;21.10;35.80
49184;DHT22;35021;49.214;12.270;2023-12-20T10:04:24;21.10;35.80
49184;DHT22;35021;49.214;12.270;2023-12-20T10:06:56;21.10;35.80
49184;DHT22;35021;49.214;12.270;2023-12-20T10:09:24;21.10;35.80
49184;DHT22;35021;49.214;12.270;2023-12-20T10:11:53;21.00;35.80
49184;DHT22;35021;49.214;12.270;2023-12-20T10:14:20;21.00;35.80
49184;DHT22;35021;49.214;12.270;2023-12-20T10:16:49;21.00;35.80
49184;DHT22;35021;49.214;12.270;2023-12-20T10:19:17;21.00;35.90
49184;DHT22;35021;49.214;12.270;2023-12-20T10:21:45;21.00;35.90
49184;DHT22;35021;49.214;12.270;2023-12-20T10:24:19;21.00;35.90
49184;DHT22;35021;49.214;12.270;2023-12-20T10:26:46;21.00;35.90
49184;DHT22;35021;49.214;12.270;2023-12-20T10:29:13;21.10;35.90
49184;DHT22;35021;49.214;12.270;2023-12-20T10:31:40;21.10;35.80
49184;DHT22;35021;49.214;12.270;2023-12-20T10:34:07;21.10;35.70
49184;DHT22;35021;49.214;12.270;2023-12-20T10:36:34;21.10;36.40
49184;DHT22;35021;49.214;12.270;2023-12-20T10:39:03;21.20;35.60
49184;DHT22;35021;49.214;12.270;2023-12-20T10:41:32;21.20;35.50
49184;DHT22;35021;49.214;12.270;2023-12-20T10:44:03;21.20;35.40
49184;DHT22;35021;49.214;12.270;2023-12-20T10:46:31;21.30;35.30
49184;DHT22;35021;49.214;12.270;2023-12-20T10:49:01;21.30;35.30
49184;DHT22;35021;49.214;12.270;2023-12-20T10:51:29;21.30;35.20
49184;DHT22;35021;49.214;12.270;2023-12-20T10:53:57;21.40;35.20
49184;DHT22;35021;49.214;12.270;2023-12-20T10:56:24;21.40;35.00
49184;DHT22;35021;49.214;12.270;2023-12-20T10:58:51;21.40;34.90
49184;DHT22;35021;49.214;12.270;2023-12-20T11:01:19;21.50;34.90
49184;DHT22;35021;49.214;12.270;2023-12-20T11:03:53;21.50;34.90
49184;DHT22;35021;49.214;12.270;2023-12-20T11:08:59;21.50;34.70
49184;DHT22;35021;49.214;12.270;2023-12-20T11:14:06;21.60;34.60
49184;DHT22;35021;49.214;12.270;2023-12-20T11:16:38;21.70;34.60
49184;DHT22;35021;49.214;12.270;2023-12-20T11:19:18;21.70;34.50
49184;DHT22;35021;49.214;12.270;2023-12-20T11:21:45;21.70;34.40
49184;DHT22;35021;49.214;12.270;2023-12-20T11:24:13;21.80;34.30
49184;DHT22;35021;49.214;12.270;2023-12-20T11:26:46;21.80;34.30
49184;DHT22;35021;49.214;12.270;2023-12-20T11:29:33;21.80;34.20
49184;DHT22;35021;49.214;12.270;2023-12-20T11:32:01;21.80;34.20
49184;DHT22;35021;49.214;12.270;2023-12-20T11:34:28;21.80;34.20
49184;DHT22;35021;49.214;12.270;2023-12-20T11:37:01;21.80;34.10
49184;DHT22;35021;49.214;12.270;2023-12-20T11:39:29;21.80;34.10
49184;DHT22;35021;49.214;12.270;2023-12-20T11:41:57;21.80;34.10
49184;DHT22;35021;49.214;12.270;2023-12-20T11:44:25;21.80;34.10
49184;DHT22;35021;49.214;12.270;2023-12-20T11:46:52;21.80;33.90
49184;DHT22;35021;49.214;12.270;2023-12-20T11:49:24;21.80;33.90
49184;DHT22;35021;49.214;12.270;2023-12-20T11:51:52;21.90;33.80
49184;DHT22;35021;49.214;12.270;2023-12-20T11:54:19;21.90;33.70
49184;DHT22;35021;49.214;12.270;2023-12-20T11:56:46;22.00;33.50
49184;DHT22;35021;49.214;12.270;2023-12-20T11:59:14;22.10;33.50
49184;DHT22;35021;49.214;12.270;2023-12-20T12:01:50;22.10;33.30
49184;DHT22;35021;49.214;12.270;2023-12-20T12:04:18;22.20;33.20
49184;DHT22;35021;49.214;12.270;2023-12-20T12:06:45;22.20;33.10
49184;DHT22;35021;49.214;12.270;2023-12-20T12:09:13;22.20;32.90
49184;DHT22;35021;49.214;12.270;2023-12-20T12:11:41;22.30;32.80
49184;DHT22;35021;49.214;12.270;2023-12-20T12:14:08;22.40;32.80
49184;DHT22;35021;49.214;12.270;2023-12-20T12:16:35;22.40;32.60
49184;DHT22;35021;49.214;12.270;2023-12-20T12:19:02;22.40;32.50
49184;DHT22;35021;49.214;12.270;2023-12-20T12:21:29;22.50;32.40
49184;DHT22;35021;49.214;12.270;2023-12-20T12:24:06;22.50;32.30
49184;DHT22;35021;49.214;12.270;2023-12-20T12:26:33;22.60;32.20
49184;DHT22;35021;49.214;12.270;2023-12-20T12:29:00;22.70;32.20
49184;DHT22;35021;49.214;12.270;2023-12-20T12:31:28;22.70;32.10
49184;DHT22;35021;49.214;12.270;2023-12-20T12:33:55;22.70;32.00
49184;DHT22;35021;49.214;12.270;2023-12-20T12:36:22;22.70;31.90
49184;DHT22;35021;49.214;12.270;2023-12-20T12:38:49;22.80;31.90
49184;DHT22;35021;49.214;12.270;2023-12-20T12:41:16;22.80;31.80
49184;DHT22;35021;49.214;12.270;2023-12-20T12:43:43;22.80;31.80
49184;DHT22;35021;49.214;12.270;2023-12-20T12:46:10;22.80;31.90
49184;DHT22;35021;49.214;12.270;2023-12-20T12:48:38;22.70;31.90
49184;DHT22;35021;49.214;12.270;2023-12-20T12:51:07;22.70;32.00
49184;DHT22;35021;49.214;12.270;2023-12-20T12:53:39;22.60;32.20
49184;DHT22;35021;49.214;12.270;2023-12-20T12:56:06;22.50;33.00
49184;DHT22;35021;49.214;12.270;2023-12-20T12:58:34;22.40;32.50
49184;DHT22;35021;49.214;12.270;2023-12-20T13:01:01;22.30;32.60
49184;DHT22;35021;49.214;12.270;2023-12-20T13:03:30;22.10;32.70
49184;DHT22;35021;49.214;12.270;2023-12-20T13:05:57;22.00;32.90
49184;DHT22;35021;49.214;12.270;2023-12-20T13:08:25;21.90;33.00
49184;DHT22;35021;49.214;12.270;2023-12-20T13:10:52;21.90;33.00
49184;DHT22;35021;49.214;12.270;2023-12-20T13:13:19;21.90;33.00
49184;DHT22;35021;49.214;12.270;2023-12-20T13:15:46;21.90;33.10
49184;DHT22;35021;49.214;12.270;2023-12-20T13:18:18;21.90;33.00
49184;DHT22;35021;49.214;12.270;2023-12-20T13:20:46;21.90;33.00
49184;DHT22;35021;49.214;12.270;2023-12-20T13:23:13;22.00;33.80
49184;DHT22;35021;49.214;12.270;2023-12-20T13:25:40;22.00;33.00
49184;DHT22;35021;49.214;12.270;2023-12-20T13:28:07;22.00;33.10
49184;DHT22;35021;49.214;12.270;2023-12-20T13:30:35;22.00;33.00
49184;DHT22;35021;49.214;12.270;2023-12-20T13:33:02;22.00;33.00
49184;DHT22;35021;49.214;12.270;2023-12-20T13:35:30;22.10;32.90
49184;DHT22;35021;49.214;12.270;2023-12-20T13:37:58;22.10;32.90
49184;DHT22;35021;49.214;12.270;2023-12-20T13:40:25;22.10;32.80
49184;DHT22;35021;49.214;12.270;2023-12-20T13:42:52;22.10;32.80
49184;DHT22;35021;49.214;12.270;2023-12-20T13:45:19;22.10;32.80
49184;DHT22;35021;49.214;12.270;2023-12-20T13:47:46;22.10;32.70
49184;DHT22;35021;49.214;12.270;2023-12-20T13:50:13;22.10;32.60
49184;DHT22;35021;49.214;12.270;2023-12-20T13:52:40;22.10;32.50
49184;DHT22;35021;49.214;12.270;2023-12-20T13:55:08;22.10;32.40
49184;DHT22;35021;49.214;12.270;2023-12-20T13:57:35;22.10;33.10
49184;DHT22;35021;49.214;12.270;2023-12-20T14:00:21;22.10;32.30
49184;DHT22;35021;49.214;12.270;2023-12-20T14:02:48;22.20;32.30
49184;DHT22;35021;49.214;12.270;2023-12-20T14:05:15;22.10;32.30
49184;DHT22;35021;49.214;12.270;2023-12-20T14:07:45;22.10;32.20
49184;DHT22;35021;49.214;12.270;2023-12-20T14:10:13;22.10;32.20
49184;DHT22;35021;49.214;12.270;2023-12-20T14:12:40;22.10;32.30
49184;DHT22;35021;49.214;12.270;2023-12-20T14:15:08;22.10;32.30
49184;DHT22;35021;49.214;12.270;2023-12-20T14:17:39;22.00;32.90
49184;DHT22;35021;49.214;12.270;2023-12-20T14:20:06;22.00;32.20
49184;DHT22;35021;49.214;12.270;2023-12-20T14:22:36;22.00;32.20
49184;DHT22;35021;49.214;12.270;2023-12-20T14:25:05;22.00;32.20
49184;DHT22;35021;49.214;12.270;2023-12-20T14:27:33;21.90;32.10
49184;DHT22;35021;49.214;12.270;2023-12-20T14:30:00;21.90;32.80
49184;DHT22;35021;49.214;12.270;2023-12-20T14:32:28;22.00;32.00
49184;DHT22;35021;49.214;12.270;2023-12-20T14:34:55;22.00;31.90
49184;DHT22;35021;49.214;12.270;2023-12-20T14:37:22;22.10;31.90
49184;DHT22;35021;49.214;12.270;2023-12-20T14:39:49;22.10;31.80
49184;DHT22;35021;49.214;12.270;2023-12-20T14:42:16;22.20;31.70
49184;DHT22;35021;49.214;12.270;2023-12-20T14:44:43;22.20;31.50
49184;DHT22;35021;49.214;12.270;2023-12-20T14:47:10;22.30;31.50
49184;DHT22;35021;49.214;12.270;2023-12-20T14:49:37;22.30;31.50
49184;DHT22;35021;49.214;12.270;2023-12-20T14:52:05;22.30;31.50
49184;DHT22;35021;49.214;12.270;2023-12-20T14:54:32;22.30;31.50
49184;DHT22;35021;49.214;12.270;2023-12-20T14:56:59;22.30;31.60
49184;DHT22;35021;49.214;12.270;2023-12-20T14:59:31;22.30;31.50
49184;DHT22;35021;49.214;12.270;2023-12-20T15:01:59;22.30;31.60
49184;DHT22;35021;49.214;12.270;2023-12-20T15:04:26;22.30;31.60
49184;DHT22;35021;49.214;12.270;2023-12-20T15:06:56;22.30;31.60
49184;DHT22;35021;49.214;12.270;2023-12-20T15:09:23;22.30;31.60
49184;DHT22;35021;49.214;12.270;2023-12-20T15:11:50;22.30;31.60
49184;DHT22;35021;49.214;12.270;2023-12-20T15:14:17;22.30;31.50
49184;DHT22;35021;49.214;12.270;2023-12-20T15:16:46;22.30;31.50
49184;DHT22;35021;49.214;12.270;2023-12-20T15:19:14;22.30;31.50
49184;DHT22;35021;49.214;12.270;2023-12-20T15:21:41;22.20;31.50
49184;DHT22;35021;49.214;12.270;2023-12-20T15:24:13;22.20;31.50